sensor_id;sensor_type;location;lat;lon;timestamp;P1;durP1;ratioP1;P2;durP2;ratioP2
33858;SDS011;20156;47.486;12.074;2023-12-28T00:02:19;6.67;;;4.93;;
33858;SDS011;20156;47.486;12.074;2023-12-28T00:04:45;5.67;;;4.00;;
33858;SDS011;20156;47.486;12.074;2023-12-28T00:07:10;5.60;;;4.27;;
33858;SDS011;20156;47.486;12.074;2023-12-28T00:09:36;5.73;;;4.57;;
33858;SDS011;20156;47.486;12.074;2023-12-28T00:12:02;6.90;;;4.67;;
33858;SDS011;20156;47.486;12.074;2023-12-28T00:14:27;7.03;;;4.57;;
33858;SDS011;20156;47.486;12.074;2023-12-28T00:16:52;6.33;;;3.73;;
33858;SDS011;20156;47.486;12.074;2023-12-28T00:19:18;6.13;;;3.90;;
33858;SDS011;20156;47.486;12.074;2023-12-28T00:21:45;5.83;;;3.80;;
33858;SDS011;20156;47.486;12.074;2023-12-28T00:24:10;5.50;;;4.03;;
33858;SDS011;20156;47.486;12.074;2023-12-28T00:26:36;5.07;;;3.93;;
33858;SDS011;20156;47.486;12.074;2023-12-28T00:29:01;6.20;;;3.97;;
33858;SDS011;20156;47.486;12.074;2023-12-28T00:31:26;7.33;;;3.97;;
33858;SDS011;20156;47.486;12.074;2023-12-28T00:33:51;8.53;;;4.20;;
33858;SDS011;20156;47.486;12.074;2023-12-28T00:36:17;7.63;;;4.53;;
33858;SDS011;20156;47.486;12.074;2023-12-28T00:38:42;7.00;;;4.40;;
33858;SDS011;20156;47.486;12.074;2023-12-28T00:41:07;7.27;;;4.40;;
33858;SDS011;20156;47.486;12.074;2023-12-28T00:43:32;6.97;;;4.50;;
33858;SDS011;20156;47.486;12.074;2023-12-28T00:45:58;5.43;;;3.93;;
33858;SDS011;20156;47.486;12.074;2023-12-28T00:48:23;6.37;;;4.23;;
33858;SDS011;20156;47.486;12.074;2023-12-28T00:50:48;6.30;;;4.53;;
33858;SDS011;20156;47.486;12.074;2023-12-28T00:53:13;6.10;;;3.80;;
33858;SDS011;20156;47.486;12.074;2023-12-28T00:55:39;6.20;;;4.40;;
33858;SDS011;20156;47.486;12.074;2023-12-28T00:58:04;6.73;;;4.43;;
33858;SDS011;20156;47.486;12.074;2023-12-28T01:00:29;8.73;;;4.73;;
33858;SDS011;20156;47.486;12.074;2023-12-28T01:02:54;8.43;;;5.37;;
33858;SDS011;20156;47.486;12.074;2023-12-28T01:05:19;17.07;;;9.07;;
33858;SDS011;20156;47.486;12.074;2023-12-28T01:07:46;11.53;;;7.03;;
33858;SDS011;20156;47.486;12.074;2023-12-28T01:10:11;10.03;;;6.80;;
33858;SDS011;20156;47.486;12.074;2023-12-28T01:12:37;10.40;;;6.13;;
33858;SDS011;20156;47.486;12.074;2023-12-28T01:15:02;9.93;;;5.87;;
33858;SDS011;20156;47.486;12.074;2023-12-28T01:17:27;8.80;;;6.00;;
33858;SDS011;20156;47.486;12.074;2023-12-28T01:19:52;9.23;;;5.73;;
33858;SDS011;20156;47.486;12.074;2023-12-28T01:22:18;9.23;;;5.77;;
33858;SDS011;20156;47.486;12.074;2023-12-28T01:24:45;8.57;;;5.60;;
33858;SDS011;20156;47.486;12.074;2023-12-28T01:27:11;11.50;;;5.50;;
33858;SDS011;20156;47.486;12.074;2023-12-28T01:29:36;7.57;;;4.90;;
33858;SDS011;20156;47.486;12.074;2023-12-28T01:32:03;7.50;;;5.10;;
33858;SDS011;20156;47.486;12.074;2023-12-28T01:34:28;5.83;;;4.43;;
33858;SDS011;20156;47.486;12.074;2023-12-28T01:36:53;7.63;;;5.40;;
33858;SDS011;20156;47.486;12.074;2023-12-28T01:39:18;7.40;;;5.00;;
33858;SDS011;20156;47.486;12.074;2023-12-28T01:41:44;9.20;;;4.97;;
33858;SDS011;20156;47.486;12.074;2023-12-28T01:44:10;9.40;;;5.33;;
33858;SDS011;20156;47.486;12.074;2023-12-28T01:46:35;8.77;;;6.03;;
33858;SDS011;20156;47.486;12.074;2023-12-28T01:49:00;9.30;;;6.07;;
33858;SDS011;20156;47.486;12.074;2023-12-28T01:51:26;9.73;;;5.67;;
33858;SDS011;20156;47.486;12.074;2023-12-28T01:53:52;9.97;;;6.60;;
33858;SDS011;20156;47.486;12.074;2023-12-28T01:56:18;9.93;;;6.00;;
33858;SDS011;20156;47.486;12.074;2023-12-28T01:58:44;7.60;;;5.10;;
33858;SDS011;20156;47.486;12.074;2023-12-28T02:01:11;9.17;;;5.73;;
33858;SDS011;20156;47.486;12.074;2023-12-28T02:03:36;10.07;;;5.90;;
33858;SDS011;20156;47.486;12.074;2023-12-28T02:06:02;8.57;;;5.43;;
33858;SDS011;20156;47.486;12.074;2023-12-28T02:08:28;7.57;;;5.53;;
33858;SDS011;20156;47.486;12.074;2023-12-28T02:10:53;8.73;;;5.70;;
33858;SDS011;20156;47.486;12.074;2023-12-28T02:13:20;8.33;;;5.10;;
33858;SDS011;20156;47.486;12.074;2023-12-28T02:15:45;8.47;;;5.40;;
33858;SDS011;20156;47.486;12.074;2023-12-28T02:18:12;11.83;;;7.63;;
33858;SDS011;20156;47.486;12.074;2023-12-28T02:20:40;8.10;;;5.47;;
33858;SDS011;20156;47.486;12.074;2023-12-28T02:23:06;13.90;;;8.77;;
33858;SDS011;20156;47.486;12.074;2023-12-28T02:25:32;11.33;;;7.07;;
33858;SDS011;20156;47.486;12.074;2023-12-28T02:27:57;11.23;;;6.53;;
33858;SDS011;20156;47.486;12.074;2023-12-28T02:30:22;11.90;;;6.60;;
33858;SDS011;20156;47.486;12.074;2023-12-28T02:35:20;9.67;;;5.90;;
33858;SDS011;20156;47.486;12.074;2023-12-28T02:37:48;8.00;;;5.77;;
33858;SDS011;20156;47.486;12.074;2023-12-28T02:40:15;10.47;;;4.90;;
33858;SDS011;20156;47.486;12.074;2023-12-28T02:42:41;7.73;;;4.90;;
33858;SDS011;20156;47.486;12.074;2023-12-28T02:45:06;6.90;;;4.50;;
33858;SDS011;20156;47.486;12.074;2023-12-28T02:47:32;9.57;;;6.00;;
33858;SDS011;20156;47.486;12.074;2023-12-28T02:49:57;9.67;;;5.80;;
33858;SDS011;20156;47.486;12.074;2023-12-28T02:52:24;9.67;;;5.63;;
33858;SDS011;20156;47.486;12.074;2023-12-28T02:54:49;11.13;;;5.60;;
33858;SDS011;20156;47.486;12.074;2023-12-28T02:57:14;9.10;;;6.03;;
33858;SDS011;20156;47.486;12.074;2023-12-28T02:59:43;11.07;;;6.53;;
33858;SDS011;20156;47.486;12.074;2023-12-28T03:02:08;9.13;;;6.27;;
33858;SDS011;20156;47.486;12.074;2023-12-28T03:04:34;9.20;;;5.93;;
33858;SDS011;20156;47.486;12.074;2023-12-28T03:06:59;8.40;;;6.00;;
33858;SDS011;20156;47.486;12.074;2023-12-28T03:09:24;8.87;;;5.90;;
33858;SDS011;20156;47.486;12.074;2023-12-28T03:11:49;6.40;;;4.80;;
33858;SDS011;20156;47.486;12.074;2023-12-28T03:14:15;7.90;;;5.63;;
33858;SDS011;20156;47.486;12.074;2023-12-28T03:16:40;10.37;;;5.60;;
33858;SDS011;20156;47.486;12.074;2023-12-28T03:19:05;8.43;;;5.43;;
33858;SDS011;20156;47.486;12.074;2023-12-28T03:21:30;14.23;;;8.43;;
33858;SDS011;20156;47.486;12.074;2023-12-28T03:23:56;12.23;;;6.90;;
33858;SDS011;20156;47.486;12.074;2023-12-28T03:26:21;12.67;;;8.10;;
33858;SDS011;20156;47.486;12.074;2023-12-28T03:28:47;12.70;;;6.13;;
33858;SDS011;20156;47.486;12.074;2023-12-28T03:31:12;14.27;;;7.37;;
33858;SDS011;20156;47.486;12.074;2023-12-28T03:33:37;17.77;;;8.50;;
33858;SDS011;20156;47.486;12.074;2023-12-28T03:36:03;13.13;;;7.13;;
33858;SDS011;20156;47.486;12.074;2023-12-28T03:38:28;9.27;;;5.83;;
33858;SDS011;20156;47.486;12.074;2023-12-28T03:40:54;10.90;;;7.30;;
33858;SDS011;20156;47.486;12.074;2023-12-28T03:43:20;15.60;;;7.87;;
33858;SDS011;20156;47.486;12.074;2023-12-28T03:45:45;12.03;;;7.53;;
33858;SDS011;20156;47.486;12.074;2023-12-28T03:48:10;13.00;;;6.50;;
33858;SDS011;20156;47.486;12.074;2023-12-28T03:50:35;10.60;;;6.50;;
33858;SDS011;20156;47.486;12.074;2023-12-28T03:53:01;8.53;;;6.13;;
33858;SDS011;20156;47.486;12.074;2023-12-28T03:55:26;9.43;;;6.17;;
33858;SDS011;20156;47.486;12.074;2023-12-28T03:57:51;9.23;;;5.37;;
33858;SDS011;20156;47.486;12.074;2023-12-28T04:00:16;6.97;;;4.77;;
33858;SDS011;20156;47.486;12.074;2023-12-28T04:02:42;6.07;;;5.00;;
33858;SDS011;20156;47.486;12.074;2023-12-28T04:05:07;8.13;;;5.30;;
33858;SDS011;20156;47.486;12.074;2023-12-28T04:07:32;8.20;;;5.13;;
33858;SDS011;20156;47.486;12.074;2023-12-28T04:09:58;8.00;;;5.20;;
33858;SDS011;20156;47.486;12.074;2023-12-28T04:12:23;10.93;;;6.17;;
33858;SDS011;20156;47.486;12.074;2023-12-28T04:14:49;9.07;;;5.83;;
33858;SDS011;20156;47.486;12.074;2023-12-28T04:17:14;13.93;;;8.83;;
33858;SDS011;20156;47.486;12.074;2023-12-28T04:19:39;14.30;;;8.03;;
33858;SDS011;20156;47.486;12.074;2023-12-28T04:22:04;12.83;;;8.27;;
33858;SDS011;20156;47.486;12.074;2023-12-28T04:24:30;11.97;;;7.43;;
33858;SDS011;20156;47.486;12.074;2023-12-28T04:26:55;12.67;;;8.23;;
33858;SDS011;20156;47.486;12.074;2023-12-28T04:29:20;13.33;;;7.53;;
33858;SDS011;20156;47.486;12.074;2023-12-28T04:31:46;12.80;;;7.13;;
33858;SDS011;20156;47.486;12.074;2023-12-28T04:34:11;10.70;;;7.10;;
33858;SDS011;20156;47.486;12.074;2023-12-28T04:36:40;9.00;;;5.80;;
33858;SDS011;20156;47.486;12.074;2023-12-28T04:39:07;13.03;;;6.93;;
33858;SDS011;20156;47.486;12.074;2023-12-28T04:41:32;9.80;;;6.03;;
33858;SDS011;20156;47.486;12.074;2023-12-28T04:43:57;10.47;;;6.50;;
33858;SDS011;20156;47.486;12.074;2023-12-28T04:46:22;11.00;;;5.83;;
33858;SDS011;20156;47.486;12.074;2023-12-28T04:48:48;10.93;;;5.63;;
33858;SDS011;20156;47.486;12.074;2023-12-28T04:51:13;11.70;;;6.90;;
33858;SDS011;20156;47.486;12.074;2023-12-28T04:53:39;10.13;;;6.33;;
33858;SDS011;20156;47.486;12.074;2023-12-28T04:56:04;13.07;;;7.17;;
33858;SDS011;20156;47.486;12.074;2023-12-28T04:58:29;12.67;;;8.00;;
33858;SDS011;20156;47.486;12.074;2023-12-28T05:00:55;11.57;;;7.27;;
33858;SDS011;20156;47.486;12.074;2023-12-28T05:03:20;11.47;;;7.20;;
33858;SDS011;20156;47.486;12.074;2023-12-28T05:05:45;12.77;;;7.37;;
33858;SDS011;20156;47.486;12.074;2023-12-28T05:08:10;14.57;;;8.50;;
33858;SDS011;20156;47.486;12.074;2023-12-28T05:10:36;14.70;;;8.33;;
33858;SDS011;20156;47.486;12.074;2023-12-28T05:13:01;13.57;;;8.70;;
33858;SDS011;20156;47.486;12.074;2023-12-28T05:15:26;17.20;;;8.97;;
33858;SDS011;20156;47.486;12.074;2023-12-28T05:17:51;16.03;;;11.40;;
33858;SDS011;20156;47.486;12.074;2023-12-28T05:20:17;24.77;;;13.70;;
33858;SDS011;20156;47.486;12.074;2023-12-28T05:22:42;17.33;;;10.00;;
33858;SDS011;20156;47.486;12.074;2023-12-28T05:25:08;18.20;;;10.30;;
33858;SDS011;20156;47.486;12.074;2023-12-28T05:27:33;14.17;;;8.47;;
33858;SDS011;20156;47.486;12.074;2023-12-28T05:29:59;16.00;;;9.17;;
33858;SDS011;20156;47.486;12.074;2023-12-28T05:32:24;16.10;;;9.50;;
33858;SDS011;20156;47.486;12.074;2023-12-28T05:34:49;11.70;;;8.63;;
33858;SDS011;20156;47.486;12.074;2023-12-28T05:37:15;13.80;;;8.33;;
33858;SDS011;20156;47.486;12.074;2023-12-28T05:39:40;13.07;;;8.67;;
33858;SDS011;20156;47.486;12.074;2023-12-28T05:42:05;10.40;;;8.00;;
33858;SDS011;20156;47.486;12.074;2023-12-28T05:44:31;11.87;;;7.50;;
33858;SDS011;20156;47.486;12.074;2023-12-28T05:46:56;13.97;;;8.97;;
33858;SDS011;20156;47.486;12.074;2023-12-28T05:49:22;13.87;;;8.60;;
33858;SDS011;20156;47.486;12.074;2023-12-28T05:51:47;19.73;;;10.90;;
33858;SDS011;20156;47.486;12.074;2023-12-28T05:54:13;20.83;;;9.43;;
33858;SDS011;20156;47.486;12.074;2023-12-28T05:56:38;14.97;;;8.87;;
33858;SDS011;20156;47.486;12.074;2023-12-28T05:59:03;14.43;;;9.13;;
33858;SDS011;20156;47.486;12.074;2023-12-28T06:01:29;14.03;;;7.77;;
33858;SDS011;20156;47.486;12.074;2023-12-28T06:03:54;14.90;;;7.77;;
33858;SDS011;20156;47.486;12.074;2023-12-28T06:06:19;10.20;;;6.30;;
33858;SDS011;20156;47.486;12.074;2023-12-28T06:08:45;13.37;;;7.13;;
33858;SDS011;20156;47.486;12.074;2023-12-28T06:11:10;11.27;;;7.20;;
33858;SDS011;20156;47.486;12.074;2023-12-28T06:13:36;12.03;;;7.70;;
33858;SDS011;20156;47.486;12.074;2023-12-28T06:16:01;24.53;;;11.50;;
33858;SDS011;20156;47.486;12.074;2023-12-28T06:18:27;19.60;;;10.43;;
33858;SDS011;20156;47.486;12.074;2023-12-28T06:20:52;23.20;;;11.20;;
33858;SDS011;20156;47.486;12.074;2023-12-28T06:23:17;16.67;;;8.43;;
33858;SDS011;20156;47.486;12.074;2023-12-28T06:25:42;11.50;;;7.33;;
33858;SDS011;20156;47.486;12.074;2023-12-28T06:28:08;38.83;;;21.87;;
33858;SDS011;20156;47.486;12.074;2023-12-28T06:30:33;22.77;;;11.67;;
33858;SDS011;20156;47.486;12.074;2023-12-28T06:32:58;20.97;;;12.30;;
33858;SDS011;20156;47.486;12.074;2023-12-28T06:35:23;37.00;;;21.50;;
33858;SDS011;20156;47.486;12.074;2023-12-28T06:37:49;24.67;;;16.03;;
33858;SDS011;20156;47.486;12.074;2023-12-28T06:40:14;22.10;;;13.97;;
33858;SDS011;20156;47.486;12.074;2023-12-28T06:42:40;15.20;;;9.30;;
33858;SDS011;20156;47.486;12.074;2023-12-28T06:45:08;14.97;;;9.60;;
33858;SDS011;20156;47.486;12.074;2023-12-28T06:47:33;15.67;;;9.20;;
33858;SDS011;20156;47.486;12.074;2023-12-28T06:49:59;12.00;;;8.93;;
33858;SDS011;20156;47.486;12.074;2023-12-28T06:52:24;12.50;;;8.70;;
33858;SDS011;20156;47.486;12.074;2023-12-28T06:54:50;16.93;;;10.87;;
33858;SDS011;20156;47.486;12.074;2023-12-28T06:57:15;16.30;;;9.70;;
33858;SDS011;20156;47.486;12.074;2023-12-28T06:59:41;19.13;;;9.47;;
33858;SDS011;20156;47.486;12.074;2023-12-28T07:02:06;19.40;;;10.13;;
33858;SDS011;20156;47.486;12.074;2023-12-28T07:04:31;18.43;;;12.27;;
33858;SDS011;20156;47.486;12.074;2023-12-28T07:06:58;11.57;;;8.67;;
33858;SDS011;20156;47.486;12.074;2023-12-28T07:09:23;12.40;;;9.30;;
33858;SDS011;20156;47.486;12.074;2023-12-28T07:11:48;14.67;;;9.80;;
33858;SDS011;20156;47.486;12.074;2023-12-28T07:14:14;15.60;;;10.23;;
33858;SDS011;20156;47.486;12.074;2023-12-28T07:16:39;13.50;;;9.33;;
33858;SDS011;20156;47.486;12.074;2023-12-28T07:19:04;11.13;;;8.17;;
33858;SDS011;20156;47.486;12.074;2023-12-28T07:21:30;14.00;;;8.30;;
33858;SDS011;20156;47.486;12.074;2023-12-28T07:23:55;14.97;;;10.00;;
33858;SDS011;20156;47.486;12.074;2023-12-28T07:26:20;18.07;;;10.00;;
33858;SDS011;20156;47.486;12.074;2023-12-28T07:28:46;25.07;;;14.13;;
33858;SDS011;20156;47.486;12.074;2023-12-28T07:31:22;24.20;;;12.80;;
33858;SDS011;20156;47.486;12.074;2023-12-28T07:33:47;23.60;;;13.50;;
33858;SDS011;20156;47.486;12.074;2023-12-28T07:36:12;20.97;;;13.70;;
33858;SDS011;20156;47.486;12.074;2023-12-28T07:38:38;21.73;;;13.37;;
33858;SDS011;20156;47.486;12.074;2023-12-28T07:41:04;24.53;;;13.50;;
33858;SDS011;20156;47.486;12.074;2023-12-28T07:43:29;25.63;;;14.33;;
33858;SDS011;20156;47.486;12.074;2023-12-28T07:45:54;26.57;;;15.33;;
33858;SDS011;20156;47.486;12.074;2023-12-28T07:48:20;22.87;;;13.00;;
33858;SDS011;20156;47.486;12.074;2023-12-28T07:50:45;26.80;;;14.60;;
33858;SDS011;20156;47.486;12.074;2023-12-28T07:53:10;30.40;;;15.87;;
33858;SDS011;20156;47.486;12.074;2023-12-28T07:55:36;27.13;;;14.80;;
33858;SDS011;20156;47.486;12.074;2023-12-28T07:58:01;19.23;;;12.10;;
33858;SDS011;20156;47.486;12.074;2023-12-28T08:00:27;20.43;;;12.57;;
33858;SDS011;20156;47.486;12.074;2023-12-28T08:02:53;24.73;;;14.33;;
33858;SDS011;20156;47.486;12.074;2023-12-28T08:05:18;26.67;;;15.50;;
33858;SDS011;20156;47.486;12.074;2023-12-28T08:07:43;25.33;;;15.07;;
33858;SDS011;20156;47.486;12.074;2023-12-28T08:10:08;20.73;;;11.70;;
33858;SDS011;20156;47.486;12.074;2023-12-28T08:12:34;25.50;;;14.40;;
33858;SDS011;20156;47.486;12.074;2023-12-28T08:14:59;23.90;;;15.50;;
33858;SDS011;20156;47.486;12.074;2023-12-28T08:17:24;24.57;;;14.23;;
33858;SDS011;20156;47.486;12.074;2023-12-28T08:19:50;21.33;;;12.40;;
33858;SDS011;20156;47.486;12.074;2023-12-28T08:22:15;20.10;;;13.20;;
33858;SDS011;20156;47.486;12.074;2023-12-28T08:24:40;16.83;;;11.63;;
33858;SDS011;20156;47.486;12.074;2023-12-28T08:27:05;22.20;;;12.37;;
33858;SDS011;20156;47.486;12.074;2023-12-28T08:29:31;18.27;;;11.80;;
33858;SDS011;20156;47.486;12.074;2023-12-28T08:31:56;22.67;;;12.17;;
33858;SDS011;20156;47.486;12.074;2023-12-28T08:34:21;14.73;;;10.13;;
33858;SDS011;20156;47.486;12.074;2023-12-28T08:36:47;15.47;;;10.60;;
33858;SDS011;20156;47.486;12.074;2023-12-28T08:39:12;15.67;;;10.13;;
33858;SDS011;20156;47.486;12.074;2023-12-28T08:41:37;16.30;;;9.50;;
33858;SDS011;20156;47.486;12.074;2023-12-28T08:44:02;16.90;;;10.30;;
33858;SDS011;20156;47.486;12.074;2023-12-28T08:46:28;13.93;;;10.10;;
33858;SDS011;20156;47.486;12.074;2023-12-28T08:48:53;24.37;;;13.63;;
33858;SDS011;20156;47.486;12.074;2023-12-28T08:51:19;22.37;;;12.93;;
33858;SDS011;20156;47.486;12.074;2023-12-28T08:53:45;22.83;;;13.23;;
33858;SDS011;20156;47.486;12.074;2023-12-28T08:56:17;15.10;;;11.40;;
33858;SDS011;20156;47.486;12.074;2023-12-28T08:58:43;22.83;;;15.73;;
33858;SDS011;20156;47.486;12.074;2023-12-28T09:01:08;22.33;;;14.70;;
33858;SDS011;20156;47.486;12.074;2023-12-28T09:03:34;28.23;;;20.43;;
33858;SDS011;20156;47.486;12.074;2023-12-28T09:05:59;22.10;;;15.93;;
33858;SDS011;20156;47.486;12.074;2023-12-28T09:08:25;19.73;;;11.70;;
33858;SDS011;20156;47.486;12.074;2023-12-28T09:10:50;20.53;;;13.93;;
33858;SDS011;20156;47.486;12.074;2023-12-28T09:13:15;18.10;;;12.27;;
33858;SDS011;20156;47.486;12.074;2023-12-28T09:15:42;17.53;;;11.33;;
33858;SDS011;20156;47.486;12.074;2023-12-28T09:18:07;12.27;;;9.07;;
33858;SDS011;20156;47.486;12.074;2023-12-28T09:20:32;15.33;;;9.97;;
33858;SDS011;20156;47.486;12.074;2023-12-28T09:23:00;61.43;;;29.73;;
33858;SDS011;20156;47.486;12.074;2023-12-28T09:25:25;13.43;;;10.03;;
33858;SDS011;20156;47.486;12.074;2023-12-28T09:27:50;14.67;;;9.37;;
33858;SDS011;20156;47.486;12.074;2023-12-28T09:30:16;11.13;;;7.33;;
33858;SDS011;20156;47.486;12.074;2023-12-28T09:32:41;10.40;;;7.50;;
33858;SDS011;20156;47.486;12.074;2023-12-28T09:35:06;16.50;;;9.63;;
33858;SDS011;20156;47.486;12.074;2023-12-28T09:37:32;14.67;;;9.60;;
33858;SDS011;20156;47.486;12.074;2023-12-28T09:39:57;12.10;;;8.80;;
33858;SDS011;20156;47.486;12.074;2023-12-28T09:42:25;15.67;;;9.73;;
33858;SDS011;20156;47.486;12.074;2023-12-28T09:44:54;14.80;;;9.57;;
33858;SDS011;20156;47.486;12.074;2023-12-28T09:47:19;13.53;;;9.30;;
33858;SDS011;20156;47.486;12.074;2023-12-28T09:49:45;17.30;;;11.93;;
33858;SDS011;20156;47.486;12.074;2023-12-28T09:52:10;16.70;;;11.13;;
33858;SDS011;20156;47.486;12.074;2023-12-28T09:54:35;18.73;;;13.80;;
33858;SDS011;20156;47.486;12.074;2023-12-28T09:57:01;16.90;;;12.20;;
33858;SDS011;20156;47.486;12.074;2023-12-28T09:59:26;11.70;;;8.37;;
33858;SDS011;20156;47.486;12.074;2023-12-28T10:01:52;12.20;;;8.63;;
33858;SDS011;20156;47.486;12.074;2023-12-28T10:04:19;10.50;;;7.70;;
33858;SDS011;20156;47.486;12.074;2023-12-28T10:06:45;8.57;;;6.43;;
33858;SDS011;20156;47.486;12.074;2023-12-28T10:09:10;10.03;;;7.87;;
33858;SDS011;20156;47.486;12.074;2023-12-28T10:11:36;10.20;;;6.73;;
33858;SDS011;20156;47.486;12.074;2023-12-28T10:14:01;7.53;;;5.97;;
33858;SDS011;20156;47.486;12.074;2023-12-28T10:16:27;7.40;;;6.03;;
33858;SDS011;20156;47.486;12.074;2023-12-28T10:18:52;9.23;;;6.43;;
33858;SDS011;20156;47.486;12.074;2023-12-28T10:21:17;10.37;;;5.83;;
33858;SDS011;20156;47.486;12.074;2023-12-28T10:23:43;9.90;;;7.33;;
33858;SDS011;20156;47.486;12.074;2023-12-28T10:26:08;9.63;;;5.63;;
33858;SDS011;20156;47.486;12.074;2023-12-28T10:28:36;6.73;;;5.03;;
33858;SDS011;20156;47.486;12.074;2023-12-28T10:31:05;6.03;;;4.40;;
33858;SDS011;20156;47.486;12.074;2023-12-28T10:33:36;6.03;;;3.97;;
33858;SDS011;20156;47.486;12.074;2023-12-28T10:36:05;4.70;;;4.00;;
33858;SDS011;20156;47.486;12.074;2023-12-28T10:38:34;5.13;;;3.80;;
33858;SDS011;20156;47.486;12.074;2023-12-28T10:41:01;4.47;;;4.07;;
33858;SDS011;20156;47.486;12.074;2023-12-28T10:43:27;4.60;;;4.10;;
33858;SDS011;20156;47.486;12.074;2023-12-28T10:45:52;4.60;;;4.20;;
33858;SDS011;20156;47.486;12.074;2023-12-28T10:48:21;4.87;;;3.70;;
33858;SDS011;20156;47.486;12.074;2023-12-28T10:50:50;7.57;;;4.57;;
33858;SDS011;20156;47.486;12.074;2023-12-28T10:53:39;10.67;;;9.57;;
33858;SDS011;20156;47.486;12.074;2023-12-28T10:58:36;11.63;;;9.50;;
33858;SDS011;20156;47.486;12.074;2023-12-28T11:01:05;11.73;;;8.87;;
33858;SDS011;20156;47.486;12.074;2023-12-28T11:03:34;19.57;;;13.77;;
33858;SDS011;20156;47.486;12.074;2023-12-28T11:06:02;17.97;;;10.97;;
33858;SDS011;20156;47.486;12.074;2023-12-28T11:08:29;23.20;;;14.90;;
33858;SDS011;20156;47.486;12.074;2023-12-28T11:10:56;13.00;;;10.37;;
33858;SDS011;20156;47.486;12.074;2023-12-28T11:13:21;9.00;;;6.30;;
33858;SDS011;20156;47.486;12.074;2023-12-28T11:15:48;7.57;;;5.33;;
33858;SDS011;20156;47.486;12.074;2023-12-28T11:18:14;5.03;;;4.10;;
33858;SDS011;20156;47.486;12.074;2023-12-28T11:20:40;5.43;;;3.33;;
33858;SDS011;20156;47.486;12.074;2023-12-28T11:23:06;5.90;;;3.80;;
33858;SDS011;20156;47.486;12.074;2023-12-28T11:25:31;6.27;;;3.37;;
33858;SDS011;20156;47.486;12.074;2023-12-28T11:28:00;8.80;;;5.03;;
33858;SDS011;20156;47.486;12.074;2023-12-28T11:30:26;8.20;;;5.23;;
33858;SDS011;20156;47.486;12.074;2023-12-28T11:32:55;7.77;;;4.90;;
33858;SDS011;20156;47.486;12.074;2023-12-28T11:35:21;7.87;;;4.87;;
33858;SDS011;20156;47.486;12.074;2023-12-28T11:37:46;6.70;;;4.67;;
33858;SDS011;20156;47.486;12.074;2023-12-28T11:40:16;6.90;;;5.07;;
33858;SDS011;20156;47.486;12.074;2023-12-28T11:42:49;14.07;;;9.57;;
33858;SDS011;20156;47.486;12.074;2023-12-28T11:45:16;6.13;;;4.30;;
33858;SDS011;20156;47.486;12.074;2023-12-28T11:47:41;5.67;;;4.00;;
33858;SDS011;20156;47.486;12.074;2023-12-28T11:50:07;5.90;;;3.97;;
33858;SDS011;20156;47.486;12.074;2023-12-28T11:52:32;5.17;;;3.57;;
33858;SDS011;20156;47.486;12.074;2023-12-28T11:54:59;8.20;;;5.67;;
33858;SDS011;20156;47.486;12.074;2023-12-28T11:57:24;4.67;;;4.17;;
33858;SDS011;20156;47.486;12.074;2023-12-28T11:59:54;6.13;;;4.53;;
33858;SDS011;20156;47.486;12.074;2023-12-28T12:02:20;4.27;;;2.77;;
33858;SDS011;20156;47.486;12.074;2023-12-28T12:04:45;7.63;;;6.33;;
33858;SDS011;20156;47.486;12.074;2023-12-28T12:07:10;6.43;;;5.00;;
33858;SDS011;20156;47.486;12.074;2023-12-28T12:09:36;7.20;;;4.37;;
33858;SDS011;20156;47.486;12.074;2023-12-28T12:12:01;4.83;;;3.93;;
33858;SDS011;20156;47.486;12.074;2023-12-28T12:14:27;4.20;;;3.50;;
33858;SDS011;20156;47.486;12.074;2023-12-28T12:16:53;4.53;;;3.23;;
33858;SDS011;20156;47.486;12.074;2023-12-28T12:19:21;5.57;;;3.17;;
33858;SDS011;20156;47.486;12.074;2023-12-28T12:21:47;7.00;;;4.17;;
33858;SDS011;20156;47.486;12.074;2023-12-28T12:24:13;4.93;;;3.80;;
33858;SDS011;20156;47.486;12.074;2023-12-28T12:26:38;6.87;;;4.63;;
33858;SDS011;20156;47.486;12.074;2023-12-28T12:29:03;5.07;;;3.93;;
33858;SDS011;20156;47.486;12.074;2023-12-28T12:31:29;5.20;;;3.97;;
33858;SDS011;20156;47.486;12.074;2023-12-28T12:33:54;6.17;;;4.13;;
33858;SDS011;20156;47.486;12.074;2023-12-28T12:36:20;9.70;;;4.90;;
33858;SDS011;20156;47.486;12.074;2023-12-28T12:38:47;5.80;;;4.23;;
33858;SDS011;20156;47.486;12.074;2023-12-28T12:41:12;4.63;;;3.00;;
33858;SDS011;20156;47.486;12.074;2023-12-28T12:43:37;3.23;;;2.80;;
33858;SDS011;20156;47.486;12.074;2023-12-28T12:46:03;8.17;;;3.90;;
33858;SDS011;20156;47.486;12.074;2023-12-28T12:48:29;7.50;;;4.40;;
33858;SDS011;20156;47.486;12.074;2023-12-28T12:50:54;6.23;;;4.20;;
33858;SDS011;20156;47.486;12.074;2023-12-28T12:53:19;3.90;;;3.13;;
33858;SDS011;20156;47.486;12.074;2023-12-28T12:55:45;9.07;;;4.20;;
33858;SDS011;20156;47.486;12.074;2023-12-28T12:58:11;4.70;;;3.60;;
33858;SDS011;20156;47.486;12.074;2023-12-28T13:00:38;5.93;;;2.57;;
33858;SDS011;20156;47.486;12.074;2023-12-28T13:03:03;4.23;;;3.43;;
33858;SDS011;20156;47.486;12.074;2023-12-28T13:05:32;8.77;;;4.87;;
33858;SDS011;20156;47.486;12.074;2023-12-28T13:07:57;5.20;;;3.60;;
33858;SDS011;20156;47.486;12.074;2023-12-28T13:10:23;5.70;;;3.93;;
33858;SDS011;20156;47.486;12.074;2023-12-28T13:12:48;8.83;;;5.90;;
33858;SDS011;20156;47.486;12.074;2023-12-28T13:15:13;4.70;;;3.77;;
33858;SDS011;20156;47.486;12.074;2023-12-28T13:17:38;4.27;;;2.90;;
33858;SDS011;20156;47.486;12.074;2023-12-28T13:20:07;5.17;;;3.77;;
33858;SDS011;20156;47.486;12.074;2023-12-28T13:22:32;9.17;;;6.80;;
33858;SDS011;20156;47.486;12.074;2023-12-28T13:24:59;11.50;;;6.07;;
33858;SDS011;20156;47.486;12.074;2023-12-28T13:27:24;13.37;;;8.20;;
33858;SDS011;20156;47.486;12.074;2023-12-28T13:29:49;15.70;;;8.77;;
33858;SDS011;20156;47.486;12.074;2023-12-28T13:32:14;13.73;;;7.40;;
33858;SDS011;20156;47.486;12.074;2023-12-28T13:34:40;12.37;;;6.30;;
33858;SDS011;20156;47.486;12.074;2023-12-28T13:37:05;11.87;;;5.93;;
33858;SDS011;20156;47.486;12.074;2023-12-28T13:39:31;9.10;;;5.87;;
33858;SDS011;20156;47.486;12.074;2023-12-28T13:41:56;7.70;;;4.50;;
33858;SDS011;20156;47.486;12.074;2023-12-28T13:44:22;5.73;;;4.00;;
33858;SDS011;20156;47.486;12.074;2023-12-28T13:46:47;6.30;;;4.87;;
33858;SDS011;20156;47.486;12.074;2023-12-28T13:49:14;10.57;;;5.70;;
33858;SDS011;20156;47.486;12.074;2023-12-28T13:51:39;10.70;;;6.90;;
33858;SDS011;20156;47.486;12.074;2023-12-28T13:54:04;6.77;;;4.70;;
33858;SDS011;20156;47.486;12.074;2023-12-28T13:56:30;4.97;;;3.90;;
33858;SDS011;20156;47.486;12.074;2023-12-28T13:58:55;4.93;;;4.10;;
33858;SDS011;20156;47.486;12.074;2023-12-28T14:01:21;4.60;;;3.60;;
33858;SDS011;20156;47.486;12.074;2023-12-28T14:03:46;4.40;;;3.53;;
33858;SDS011;20156;47.486;12.074;2023-12-28T14:06:13;8.83;;;6.23;;
33858;SDS011;20156;47.486;12.074;2023-12-28T14:08:39;6.40;;;5.80;;
33858;SDS011;20156;47.486;12.074;2023-12-28T14:11:04;6.93;;;4.90;;
33858;SDS011;20156;47.486;12.074;2023-12-28T14:13:29;3.93;;;3.50;;
33858;SDS011;20156;47.486;12.074;2023-12-28T14:15:56;4.80;;;2.93;;
33858;SDS011;20156;47.486;12.074;2023-12-28T14:18:21;3.47;;;2.70;;
33858;SDS011;20156;47.486;12.074;2023-12-28T14:20:46;4.37;;;2.93;;
33858;SDS011;20156;47.486;12.074;2023-12-28T14:23:12;3.10;;;2.80;;